createdAt,value
2022-07-29T00:00:45.992Z,21.90
2022-07-29T00:03:14.785Z,21.90
2022-07-29T00:05:43.455Z,21.90
2022-07-29T00:08:12.746Z,21.90
2022-07-29T00:10:40.673Z,21.90
2022-07-29T00:13:08.817Z,21.80
2022-07-29T00:15:36.667Z,21.80
2022-07-29T00:18:05.175Z,21.80
2022-07-29T00:20:33.173Z,21.80
2022-07-29T00:23:01.049Z,21.70
2022-07-29T00:25:28.825Z,21.60
2022-07-29T00:27:56.650Z,21.60
2022-07-29T00:30:24.528Z,21.60
2022-07-29T00:32:52.296Z,21.70
2022-07-29T00:35:38.647Z,21.70
2022-07-29T00:38:06.467Z,21.70
2022-07-29T00:40:34.345Z,21.50
2022-07-29T00:43:02.981Z,21.60
2022-07-29T00:45:31.161Z,21.50
2022-07-29T00:47:58.988Z,21.60
2022-07-29T00:50:27.574Z,21.60
2022-07-29T00:52:55.463Z,21.60
2022-07-29T00:55:23.593Z,21.50
2022-07-29T00:57:52.647Z,21.50
2022-07-29T01:00:26.425Z,21.60
2022-07-29T01:02:54.350Z,21.60
2022-07-29T01:05:25.640Z,21.60
2022-07-29T01:08:16.522Z,21.60
2022-07-29T01:10:46.830Z,21.60
2022-07-29T01:13:15.819Z,21.60
2022-07-29T01:15:50.676Z,21.60
2022-07-29T01:18:32.798Z,21.70
2022-07-29T01:21:22.289Z,21.70
2022-07-29T01:24:27.191Z,21.70
2022-07-29T01:27:32.735Z,21.70
2022-07-29T01:30:05.198Z,21.70
2022-07-29T01:32:39.123Z,21.60
2022-07-29T01:35:22.072Z,21.60
2022-07-29T01:38:21.387Z,21.60
2022-07-29T01:41:06.147Z,21.60
2022-07-29T01:44:02.418Z,21.60
2022-07-29T01:46:38.139Z,21.50
2022-07-29T01:49:17.727Z,21.50
2022-07-29T01:52:08.682Z,21.50
2022-07-29T01:54:46.984Z,21.50
2022-07-29T01:57:21.313Z,21.50
2022-07-29T01:59:51.536Z,21.40
2022-07-29T02:02:20.874Z,21.40
2022-07-29T02:04:50.883Z,21.50
2022-07-29T02:07:22.901Z,21.50
2022-07-29T02:09:53.279Z,21.50
2022-07-29T02:12:23.047Z,21.40
2022-07-29T02:14:55.235Z,21.40
2022-07-29T02:17:30.270Z,21.40
2022-07-29T02:20:01.519Z,21.50
2022-07-29T02:22:34.603Z,21.50
2022-07-29T02:25:03.713Z,21.50
2022-07-29T02:27:34.520Z,21.40
2022-07-29T02:30:04.878Z,21.30
2022-07-29T02:32:36.490Z,21.30
2022-07-29T02:35:05.530Z,21.30
2022-07-29T02:37:34.609Z,21.40
2022-07-29T02:40:03.199Z,21.30
2022-07-29T02:42:34.838Z,21.30
2022-07-29T02:45:02.678Z,21.20
2022-07-29T02:47:46.099Z,21.20
2022-07-29T02:50:42.362Z,21.20
2022-07-29T02:53:38.279Z,21.10
2022-07-29T02:56:12.088Z,21.00
2022-07-29T02:58:46.117Z,21.00
2022-07-29T03:01:21.869Z,20.90
2022-07-29T03:03:54.025Z,20.90
2022-07-29T03:06:37.806Z,20.90
2022-07-29T03:09:12.961Z,20.80
2022-07-29T03:11:50.465Z,20.80
2022-07-29T03:14:21.032Z,20.70
2022-07-29T03:16:51.109Z,20.70
2022-07-29T03:19:21.237Z,20.70
2022-07-29T03:21:49.496Z,20.70
2022-07-29T03:24:36.464Z,20.70
2022-07-29T03:27:06.468Z,20.80
2022-07-29T03:29:34.797Z,20.70
2022-07-29T03:32:07.245Z,20.70
2022-07-29T03:34:37.857Z,20.60
2022-07-29T03:37:07.693Z,20.60
2022-07-29T03:39:42.425Z,20.60
2022-07-29T03:42:15.011Z,20.70
2022-07-29T03:44:46.632Z,20.70
2022-07-29T03:47:18.543Z,20.60
2022-07-29T03:49:52.874Z,20.60
2022-07-29T03:52:22.117Z,20.60
2022-07-29T03:54:50.261Z,20.60
2022-07-29T03:57:23.417Z,20.60
2022-07-29T03:59:53.258Z,20.60
2022-07-29T04:02:24.474Z,20.50
2022-07-29T04:04:55.179Z,20.60
2022-07-29T04:07:23.067Z,20.50
2022-07-29T04:09:50.816Z,20.50
2022-07-29T04:12:18.632Z,20.50
2022-07-29T04:14:46.800Z,20.40
2022-07-29T04:17:14.624Z,20.40
2022-07-29T04:19:42.366Z,20.30
2022-07-29T04:22:10.175Z,20.30
2022-07-29T04:24:37.988Z,20.40
2022-07-29T08:39:19.530Z,23.00
2022-07-29T08:41:57.428Z,23.00
2022-07-29T08:44:30.968Z,23.10
2022-07-29T08:46:59.164Z,23.30
2022-07-29T08:49:27.031Z,23.40
2022-07-29T08:51:57.090Z,23.50
2022-07-29T08:54:25.865Z,23.60
2022-07-29T08:56:54.906Z,23.80
2022-07-29T08:59:26.182Z,23.90
2022-07-29T09:01:55.637Z,24.00
2022-07-29T09:04:28.353Z,24.00
2022-07-29T09:06:59.470Z,24.00
2022-07-29T09:09:27.965Z,24.00
2022-07-29T09:11:56.534Z,24.10
2022-07-29T09:14:24.569Z,24.20
2022-07-29T09:16:57.452Z,24.30
2022-07-29T09:19:32.793Z,24.40
2022-07-29T09:22:04.220Z,24.40
2022-07-29T09:24:47.773Z,24.50
2022-07-29T09:27:18.546Z,24.60
2022-07-29T09:29:46.352Z,24.60
2022-07-29T09:32:14.284Z,24.60
2022-07-29T09:34:42.092Z,24.70
2022-07-29T09:37:09.963Z,24.80
2022-07-29T09:39:46.718Z,24.80
2022-07-29T09:42:28.157Z,24.80
2022-07-29T09:44:56.026Z,24.80
2022-07-29T09:47:40.964Z,25.00
2022-07-29T09:50:09.279Z,25.10
2022-07-29T09:52:49.510Z,25.10
2022-07-29T09:55:19.957Z,25.10
2022-07-29T09:57:48.252Z,25.00
2022-07-29T10:00:22.789Z,25.10
2022-07-29T10:02:51.979Z,25.30
2022-07-29T10:05:25.370Z,25.40
2022-07-29T10:07:58.618Z,25.40
2022-07-29T10:10:37.753Z,25.40
2022-07-29T10:13:16.088Z,25.50
2022-07-29T10:15:46.924Z,25.60
2022-07-29T10:18:18.315Z,25.60
2022-07-29T10:20:46.643Z,25.60
2022-07-29T10:23:15.014Z,25.60
2022-07-29T10:25:46.227Z,25.70
2022-07-29T10:28:16.731Z,25.80
2022-07-29T10:30:46.675Z,25.90
2022-07-29T10:33:39.926Z,26.00
2022-07-29T10:36:43.296Z,26.10
2022-07-29T10:39:55.198Z,26.20
2022-07-29T10:42:33.304Z,26.40
2022-07-29T10:45:04.875Z,26.30
2022-07-29T10:47:35.243Z,26.40
2022-07-29T10:50:06.226Z,26.30
2022-07-29T10:52:54.628Z,26.30
2022-07-29T10:55:39.412Z,26.30
2022-07-29T10:58:24.520Z,26.40
2022-07-29T11:00:55.001Z,26.40
2022-07-29T11:03:49.300Z,26.50
2022-07-29T11:06:26.193Z,26.60
2022-07-29T11:09:34.827Z,26.40
2022-07-29T11:12:03.704Z,26.40
2022-07-29T11:15:02.675Z,26.40
2022-07-29T11:17:46.931Z,26.50
2022-07-29T11:20:49.891Z,26.60
2022-07-29T11:23:33.951Z,26.70
2022-07-29T11:26:14.800Z,26.70
2022-07-29T11:28:55.632Z,26.80
2022-07-29T11:31:45.039Z,27.00
2022-07-29T11:34:33.331Z,27.20
2022-07-29T11:37:12.483Z,27.30
2022-07-29T11:39:53.773Z,27.50
2022-07-29T11:42:30.455Z,27.60
2022-07-29T11:45:41.158Z,27.80
2022-07-29T11:48:05.271Z,27.90
2022-07-29T11:50:48.354Z,28.10
2022-07-29T11:53:17.246Z,28.20
2022-07-29T11:55:51.527Z,28.20
2022-07-29T11:58:24.975Z,28.30
2022-07-29T12:00:55.654Z,28.20
2022-07-29T12:03:33.613Z,28.00
2022-07-29T12:06:24.405Z,27.90
2022-07-29T12:08:52.313Z,27.70
2022-07-29T12:11:23.380Z,27.60
2022-07-29T12:13:52.783Z,27.60
2022-07-29T12:16:26.005Z,27.40
2022-07-29T12:19:03.779Z,27.40
2022-07-29T12:21:56.912Z,27.30
2022-07-29T12:24:27.617Z,27.30
2022-07-29T12:27:00.105Z,27.20
2022-07-29T12:29:34.929Z,27.20
2022-07-29T12:32:14.737Z,27.20
2022-07-29T12:34:47.799Z,27.20
2022-07-29T12:37:15.895Z,27.20
2022-07-29T12:39:43.880Z,27.10
2022-07-29T12:42:18.535Z,27.20
2022-07-29T12:44:51.645Z,27.10
2022-07-29T12:47:21.610Z,27.20
2022-07-29T12:49:51.199Z,27.20
2022-07-29T12:52:33.459Z,27.30
2022-07-29T12:55:02.193Z,27.40
2022-07-29T12:57:30.272Z,27.40
2022-07-29T13:00:06.472Z,27.30
2022-07-29T13:02:35.419Z,27.20
2022-07-29T13:05:07.586Z,27.30
2022-07-29T13:07:55.511Z,27.20
2022-07-29T13:10:26.195Z,27.20
2022-07-29T13:13:13.208Z,27.20
2022-07-29T13:15:44.349Z,27.30
2022-07-29T13:18:37.283Z,27.30
2022-07-29T13:21:14.886Z,27.50
2022-07-29T13:23:43.609Z,27.50
2022-07-29T13:26:12.962Z,27.60
2022-07-29T13:28:41.024Z,27.80
2022-07-29T13:31:12.507Z,27.80
2022-07-29T13:33:40.421Z,27.90
2022-07-29T13:36:09.165Z,27.90
2022-07-29T13:38:36.936Z,28.00
2022-07-29T13:41:05.134Z,27.90
2022-07-29T13:43:33.577Z,27.90
2022-07-29T13:46:01.473Z,27.70
2022-07-29T13:48:29.379Z,27.60
2022-07-29T13:50:58.053Z,27.60
2022-07-29T13:53:26.855Z,27.50
2022-07-29T13:55:56.161Z,27.30
2022-07-29T13:58:24.010Z,27.20
2022-07-29T14:00:51.971Z,27.30
2022-07-29T14:03:20.106Z,27.20
2022-07-29T14:05:48.170Z,27.20
2022-07-29T14:08:16.220Z,27.30
2022-07-29T14:10:44.181Z,27.40
2022-07-29T14:13:21.830Z,27.40
2022-07-29T14:15:53.958Z,27.40
2022-07-29T14:18:21.740Z,27.50
2022-07-29T14:20:49.734Z,27.60
2022-07-29T14:23:18.176Z,27.50
2022-07-29T14:25:49.387Z,27.60
2022-07-29T14:28:17.835Z,27.60
2022-07-29T14:30:45.704Z,27.60
2022-07-29T14:33:17.897Z,27.60
2022-07-29T14:35:47.457Z,27.60
2022-07-29T14:38:16.506Z,27.70
2022-07-29T14:40:44.642Z,27.60
2022-07-29T14:43:13.155Z,27.60
2022-07-29T14:45:42.011Z,27.70
2022-07-29T14:48:09.971Z,27.80
2022-07-29T14:50:37.935Z,27.60
2022-07-29T14:53:06.158Z,27.40
2022-07-29T14:55:34.003Z,27.60
2022-07-29T14:58:09.679Z,27.50
2022-07-29T15:00:38.913Z,27.40
2022-07-29T15:03:06.870Z,27.40
2022-07-29T15:05:39.912Z,27.30
2022-07-29T15:08:09.158Z,27.50
2022-07-29T15:10:37.416Z,27.40
2022-07-29T15:13:05.285Z,27.50
2022-07-29T15:15:33.123Z,27.40
2022-07-29T15:18:00.927Z,27.40
2022-07-29T15:20:28.728Z,27.50
2022-07-29T15:22:57.220Z,27.60
2022-07-29T15:25:28.227Z,27.50
2022-07-29T15:28:01.110Z,27.50
2022-07-29T15:30:33.650Z,27.50
2022-07-29T15:33:04.765Z,27.40
2022-07-29T15:35:33.245Z,27.40
2022-07-29T15:38:08.200Z,27.20
2022-07-29T15:40:38.179Z,27.00
2022-07-29T15:43:06.859Z,27.10
2022-07-29T15:45:42.673Z,27.10
2022-07-29T15:48:13.215Z,27.00
2022-07-29T15:50:42.903Z,27.10
2022-07-29T15:53:15.380Z,27.00
2022-07-29T15:55:43.127Z,27.00
2022-07-29T15:58:12.403Z,27.10
2022-07-29T16:00:40.147Z,27.20
2022-07-29T16:03:08.480Z,27.40
2022-07-29T16:05:36.266Z,27.40
2022-07-29T16:08:05.718Z,27.40
2022-07-29T16:10:33.677Z,27.30
2022-07-29T16:13:01.836Z,27.30
2022-07-29T16:15:29.598Z,27.10
2022-07-29T16:17:57.487Z,27.00
2022-07-29T16:20:25.509Z,26.80
2022-07-29T16:22:54.321Z,26.70
2022-07-29T16:25:29.588Z,26.80
2022-07-29T16:28:06.763Z,26.90
2022-07-29T16:30:35.810Z,26.80
2022-07-29T16:33:08.201Z,27.00
2022-07-29T16:35:40.146Z,27.00
2022-07-29T16:38:08.132Z,26.90
2022-07-29T16:40:35.943Z,26.90
2022-07-29T16:43:03.709Z,27.10
2022-07-29T16:45:32.635Z,27.10
2022-07-29T16:48:15.116Z,26.90
2022-07-29T16:50:46.283Z,27.00
2022-07-29T16:53:14.084Z,26.70
2022-07-29T16:55:42.072Z,26.90
2022-07-29T16:58:11.211Z,27.00
2022-07-29T17:00:39.704Z,27.00
2022-07-29T17:03:07.579Z,27.00
2022-07-29T17:05:52.701Z,27.10
2022-07-29T17:08:22.888Z,27.20
2022-07-29T17:10:50.874Z,27.30
2022-07-29T17:13:18.707Z,27.20
2022-07-29T17:15:46.547Z,27.20
2022-07-29T17:18:14.324Z,27.20
2022-07-29T17:20:42.729Z,27.20
2022-07-29T17:23:12.396Z,27.20
2022-07-29T17:25:40.716Z,27.20
2022-07-29T17:28:08.506Z,27.10
2022-07-29T17:30:36.284Z,27.10
2022-07-29T17:33:04.148Z,26.90
2022-07-29T17:35:50.502Z,27.00
2022-07-29T17:38:18.322Z,26.90
2022-07-29T17:40:46.092Z,27.10
2022-07-29T17:43:13.955Z,27.10
